Pinehurst Ranch, MT

1:51 AM MDT on October 25, 2014 (GMT -0600)
Little Beaver Creek | Change Station
CLOSE
Current Station
Personal Weather Station
Location: Trout Creek, MT
Elevation: 2583 ft
Nearby Weather Stations

Elev 2583 ft 47.69 °N, 115.48 °W | Updated 29 seconds ago

Mostly Cloudy
Mostly Cloudy
40.8 °F
Feels Like 41 °F
N
0.0
Wind Variable Wind from NW
Gusts 2.0 mph

Today
High -- | Low -- °F
--% Chance of Precip.
Yesterday
High -- | Low -- °F
Precip. -- in
8:15 AM 6:35 PM
New Moon, 2% visible
Pressure 29.93 in
Visibility 10.0 miles
Clouds Clear
Windchill 41 °F
Dew Point 38 °F
Humidity 90%
Rainfall 0.00 in
Snow Depth Not available.
UV 0 out of 12
Pollen .40 out of 12
Air Quality Not available.
Flu Activity No Activity
METAR KCOE 250735Z AUTO 02010KT 10SM CLR 08/04 A2993 RMK AO1

More Conditions Fewer Conditions

Pressure 29.93 in
Visibility 10.0 miles
Clouds Clear
Windchill 41 °F
Dew Point 38 °F
Humidity 90%
Rainfall 0.00 in
Snow Depth Not available.
UV 0 out of 12
Pollen .40 out of 12
Air Quality Not available.
Flu Activity No Activity
METAR KCOE 250735Z AUTO 02010KT 10SM CLR 08/04 A2993 RMK AO1

More Conditions Fewer Conditions

10-Day Weather Forecast

Almanac

Astronomy

Oct. 25, 2014 Rise Set
Actual Time 8:15 AM MDT 6:35 PM MDT
Civil Twilight 7:43 AM MDT 7:06 PM MDT
Nautical Twilight 7:07 AM MDT 7:42 PM MDT
Astronomical Twilight 6:31 AM MDT 8:18 PM MDT
Moon 10:04 AM MDT 7:55 PM MDT
Length of Visible Light 11h 23m
Length of Day
10h 19m
Tomorrow will be 3m 13s shorter.
New Moon, 2% of the Moon is Illuminated
Today
New Moon
Oct 30
First Quarter
Nov 6
Full
Nov 14
Last Quarter
Nov 22
New

Today's Extremes

State Highs State Lows

Community

WunderPhotos

Upload Photos

1,764,791 photos uploaded!

Nearby

Snow Depth

Station Depth Elevation
Hoodoo Basin 1 in 6050 ft
Hand Creek 0 in 5035 ft
Moss Peak 0 in 6780 ft
Kraft Creek 1 in 4750 ft
North Fork Jocko 0 in 6330 ft

Earthquake Activity

City Distance Mag. Time & Date
No recent earthquake activity has been reported nearby.
Minimum magnitude displayed is 2.5.

Coastal Water Temperatures

Place Temperature
No Stations Reporting

Nearby Weather Stations